New Richmond, WI (54017)

3:52 AM CST on November 18, 2017 (GMT -0600)
Country View Ridge | | Change Station

Elev 971 ft 45.10 °N, 92.60 °W | Updated 4 seconds ago

Overcast
Overcast
34.0 °F
Feels Like 34 °F
N
1.3
Wind Variable Wind from North
Gusts 2.5 mph

Today
High -- | Low -- °F
--% Chance of Precip.
Yesterday
High -- | Low -- °F
Precip. -- in
Pressure 29.70 in
Visibility 5.0 miles
Clouds Overcast 900 ft
Windchill 34 °F
Dew Point 29 °F
Humidity 82%
Rainfall 0.00 in
Snow Depth Not available.
7:12 AM 4:37 PM
Waning Crescent, 0% visible
METAR KRNH 180940Z AUTO 34009KT 5SM BR OVC009 01/01 A2970 RMK AO2 T00050005
Pressure 29.70 in
Visibility 5.0 miles
Clouds Overcast 900 ft
Windchill 34 °F
Dew Point 29 °F
Humidity 82%
Rainfall 0.00 in
Snow Depth Not available.
7:12 AM 4:37 PM
Waning Crescent, 0% visible
METAR KRNH 180940Z AUTO 34009KT 5SM BR OVC009 01/01 A2970 RMK AO2 T00050005

Get Severe Weather Alerts

Thanks for signing up!

Be on the lookout for a verification email in your inbox.

You'll start receiving the daily forecast at 6 AM.

×

10-Day Weather Forecast

Almanac

Astronomy

Nov. 18, 2017 Rise Set
Actual Time
Civil Twilight
Nautical Twilight
Astronomical Twilight
Moon
Length of Visible Light
Length of Day
Tomorrow will be .
, % of the Moon is Illuminated

Today's Extremes

State Highs State Lows

Community

WunderPhotos

Category 6

Welcome to Category 6. This is the collective home for Weather Underground's featured writeups by Dr. Jeff Masters (right), Bob Henson (left), Chris Burt, and other regular contributors.

Nearby

Air Quality

  Air Quality AQ Index Pollutant
Not available.

Snow Depth

Station Depth Elevation

Earthquake Activity

City Distance Mag. Time & Date
Minimum magnitude displayed is 2.5.

Coastal Water Temperatures

Place Temperature

Stations

Nearby Weather Stations

Station Location Temp. Windchill Dew Point Humidity Wind Precip. Elev Updated Type
                   

Watches & Warnings

There are currently no watches in effect.